Time;durP1;ratioP1;P1;durP2;ratioP2;P2;SDS_P1;SDS_P2;PMS_P1;PMS_P2;Temp;Humidity;BMP_temperature;BMP_pressure;BME280_temperature;BME280_humidity;BME280_pressure;Samples;Min_cycle;Max_cycle;Signal;HPM_P1;HPM_P2
2022/11/26 05:31:21;;;;;;;9.60;6.10;;;0.80;99.90;;;;;;5120769;27;1489740;-68
2022/11/26 05:33:48;;;;;;;8.60;5.63;;;1.30;99.90;;;;;;5151152;27;20205;-68
2022/11/26 05:36:15;;;;;;;5.77;4.43;;;1.30;99.90;;;;;;5151405;27;20548;-69
2022/11/26 05:38:42;;;;;;;7.10;4.93;;;1.40;99.90;;;;;;5151309;27;20208;-69
2022/11/26 05:41:09;;;;;;;6.30;4.63;;;1.40;99.90;;;;;;5150936;27;20202;-68
2022/11/26 05:43:35;;;;;;;4.77;3.50;;;1.50;99.90;;;;;;5151068;27;20210;-69
2022/11/26 05:46:04;;;;;;;7.10;3.87;;;1.50;99.90;;;;;;5151127;27;20202;-68
2022/11/26 05:48:33;;;;;;;6.23;4.30;;;1.50;99.90;;;;;;5150886;27;20531;-68
2022/11/26 05:51:00;;;;;;;5.07;4.00;;;1.50;99.90;;;;;;5150834;27;20208;-68
2022/11/26 05:53:29;;;;;;;8.60;4.23;;;1.50;99.90;;;;;;5150883;27;20204;-69
2022/11/26 05:55:56;;;;;;;4.90;3.70;;;1.50;99.90;;;;;;5151075;27;20209;-68
2022/11/26 05:58:23;;;;;;;6.30;4.10;;;1.50;99.90;;;;;;5150794;27;20677;-70
2022/11/26 06:00:49;;;;;;;6.93;4.00;;;1.50;99.90;;;;;;5136848;27;20658;-69
2022/11/26 06:03:16;;;;;;;7.23;4.53;;;1.50;99.90;;;;;;5149835;27;20601;-68
2022/11/26 06:05:45;;;;;;;6.53;4.23;;;1.60;99.90;;;;;;5150728;27;20203;-69
2022/11/26 06:08:11;;;;;;;6.40;4.40;;;1.60;99.90;;;;;;5150537;27;20667;-67
2022/11/26 06:10:38;;;;;;;6.60;4.33;;;1.50;99.90;;;;;;5149908;27;20584;-69
2022/11/26 06:13:05;;;;;;;8.10;4.80;;;1.60;99.90;;;;;;5149869;27;20206;-69
2022/11/26 06:15:32;;;;;;;9.03;4.73;;;1.60;99.90;;;;;;5144712;27;20205;-69
2022/11/26 06:17:58;;;;;;;10.17;7.00;;;1.60;99.90;;;;;;5129088;28;20221;-68
2022/11/26 06:20:25;;;;;;;6.40;4.53;;;1.60;99.90;;;;;;5127061;27;20238;-68
2022/11/26 06:22:53;;;;;;;9.30;4.97;;;1.70;99.90;;;;;;5110201;28;20303;-69
2022/11/26 06:25:20;;;;;;;9.70;5.00;;;1.70;99.90;;;;;;5108915;28;20203;-69
2022/11/26 06:27:47;;;;;;;10.43;6.27;;;1.70;99.90;;;;;;5109696;28;20205;-68
2022/11/26 06:30:14;;;;;;;8.70;5.63;;;1.70;99.90;;;;;;5127412;28;20238;-69
2022/11/26 06:32:41;;;;;;;9.43;5.90;;;1.80;99.90;;;;;;5115319;28;20665;-68
2022/11/26 06:35:09;;;;;;;10.93;6.80;;;1.80;99.90;;;;;;5116068;28;20681;-68
2022/11/26 06:37:36;;;;;;;14.43;7.53;;;1.80;99.90;;;;;;5115675;28;20664;-68
2022/11/26 06:40:05;;;;;;;13.33;7.10;;;1.80;99.90;;;;;;5115386;28;20202;-68
2022/11/26 06:42:32;;;;;;;12.90;7.10;;;1.80;99.90;;;;;;5114093;28;20685;-68
2022/11/26 06:44:59;;;;;;;12.40;7.07;;;1.80;99.90;;;;;;5094702;28;20648;-68
2022/11/26 06:47:26;;;;;;;15.23;7.90;;;1.70;99.90;;;;;;5101988;28;20223;-68
2022/11/26 06:49:53;;;;;;;14.57;8.00;;;1.70;99.90;;;;;;5115248;28;20575;-68
2022/11/26 06:52:19;;;;;;;14.33;7.60;;;1.80;99.90;;;;;;5115434;28;20199;-68
2022/11/26 06:54:46;;;;;;;14.70;7.47;;;1.70;99.90;;;;;;5114710;28;20213;-69
2022/11/26 06:57:14;;;;;;;16.17;7.83;;;1.80;99.90;;;;;;5114175;28;20199;-68
2022/11/26 06:59:41;;;;;;;14.27;6.60;;;1.80;99.90;;;;;;5114758;28;20226;-68
2022/11/26 07:02:09;;;;;;;12.97;6.47;;;1.80;99.90;;;;;;5111123;28;20208;-69
2022/11/26 07:04:36;;;;;;;25.23;7.33;;;1.80;99.90;;;;;;5110122;28;20227;-69
2022/11/26 07:07:03;;;;;;;12.70;6.53;;;1.80;99.90;;;;;;5112675;28;20197;-69
2022/11/26 07:09:30;;;;;;;31.27;8.23;;;1.70;99.90;;;;;;5114401;28;20211;-68
2022/11/26 07:11:57;;;;;;;19.63;7.63;;;1.70;99.90;;;;;;5113865;28;20200;-68
2022/11/26 07:14:25;;;;;;;25.07;9.17;;;1.70;99.90;;;;;;5114759;28;20664;-72
2022/11/26 07:16:52;;;;;;;21.73;7.07;;;1.70;99.90;;;;;;5114125;28;20223;-69
2022/11/26 07:19:19;;;;;;;20.20;8.07;;;1.70;99.90;;;;;;5114948;28;20210;-70
2022/11/26 07:21:46;;;;;;;41.00;8.00;;;1.60;99.90;;;;;;5114343;28;20215;-69
2022/11/26 07:24:13;;;;;;;29.83;9.20;;;1.70;99.90;;;;;;5114601;28;20195;-69
2022/11/26 07:26:39;;;;;;;27.70;8.87;;;1.70;99.90;;;;;;5113548;28;20203;-69
2022/11/26 07:29:06;;;;;;;32.17;9.13;;;1.70;99.90;;;;;;5113354;28;20269;-70
2022/11/26 07:31:35;;;;;;;23.77;8.80;;;1.70;99.90;;;;;;5110896;28;20216;-68
2022/11/26 07:34:01;;;;;;;42.67;10.30;;;1.70;99.90;;;;;;5114150;28;20204;-69
2022/11/26 07:36:30;;;;;;;23.57;7.90;;;1.70;99.90;;;;;;5114496;28;20679;-70
2022/11/26 07:38:59;;;;;;;29.77;8.23;;;1.60;99.90;;;;;;5113455;28;20210;-72
2022/11/26 07:41:26;;;;;;;24.37;8.27;;;1.60;99.90;;;;;;5114692;28;20516;-69
2022/11/26 07:43:54;;;;;;;23.97;8.17;;;1.60;99.90;;;;;;5105225;28;20199;-71
2022/11/26 07:46:22;;;;;;;23.60;7.60;;;1.70;99.90;;;;;;5113971;28;20195;-69
2022/11/26 07:48:50;;;;;;;18.00;8.03;;;1.70;99.90;;;;;;5112920;28;20207;-69
2022/11/26 07:51:20;;;;;;;22.17;7.90;;;1.60;99.90;;;;;;5111902;28;20211;-72
2022/11/26 07:53:48;;;;;;;14.13;7.00;;;1.70;99.90;;;;;;5113853;28;20191;-69
2022/11/26 07:56:15;;;;;;;17.00;5.90;;;1.80;99.90;;;;;;5113774;28;20222;-70
2022/11/26 07:58:42;;;;;;;10.97;6.07;;;1.80;99.90;;;;;;5112694;28;20192;-69
2022/11/26 08:01:10;;;;;;;25.37;8.10;;;1.90;99.90;;;;;;5111880;28;20199;-70
2022/11/26 08:03:39;;;;;;;12.90;5.43;;;1.90;99.90;;;;;;5109308;28;20213;-69
2022/11/26 08:06:09;;;;;;;15.27;6.80;;;1.90;99.90;;;;;;5113529;28;20209;-70
2022/11/26 08:08:37;;;;;;;13.17;7.53;;;1.90;99.90;;;;;;5111850;28;20188;-68
2022/11/26 08:11:11;;;;;;;16.83;6.93;;;1.90;99.90;;;;;;5111950;28;20223;-69
2022/11/26 08:13:37;;;;;;;13.10;7.00;;;1.90;99.90;;;;;;5113949;28;20548;-69
2022/11/26 08:16:05;;;;;;;11.93;6.45;;;1.90;99.90;;;;;;5113155;28;20421;-69
2022/11/26 08:18:31;;;;;;;14.23;6.70;;;1.90;99.90;;;;;;5112589;28;20203;-69
2022/11/26 08:20:59;;;;;;;10.43;6.83;;;1.80;99.90;;;;;;5113857;28;20201;-67
2022/11/26 08:23:29;;;;;;;13.30;7.47;;;1.80;99.90;;;;;;5113367;28;20229;-69
2022/11/26 08:25:56;;;;;;;11.30;6.43;;;1.80;99.90;;;;;;5112339;28;20290;-69
2022/11/26 08:28:23;;;;;;;22.03;8.73;;;1.80;99.90;;;;;;5112237;28;20297;-68
2022/11/26 08:30:50;;;;;;;13.93;7.90;;;1.80;99.90;;;;;;5112710;28;20245;-70
2022/11/26 08:33:17;;;;;;;10.03;6.57;;;1.80;99.90;;;;;;5113123;28;20560;-70
2022/11/26 08:35:43;;;;;;;11.80;6.93;;;1.80;99.90;;;;;;5113034;28;20584;-70
2022/11/26 08:38:10;;;;;;;12.33;6.40;;;1.90;99.90;;;;;;5113027;28;20195;-69
2022/11/26 08:40:38;;;;;;;9.53;6.30;;;1.80;99.90;;;;;;5112945;28;20211;-69
2022/11/26 08:43:08;;;;;;;10.60;6.77;;;1.80;99.90;;;;;;5110262;28;20200;-69
2022/11/26 08:45:35;;;;;;;10.73;6.60;;;1.90;99.90;;;;;;5111775;28;20681;-70
2022/11/26 08:48:02;;;;;;;9.80;6.97;;;1.80;99.90;;;;;;5112371;28;20206;-69
2022/11/26 08:50:29;;;;;;;7.70;6.10;;;1.90;99.90;;;;;;5110084;28;20242;-69
2022/11/26 08:52:55;;;;;;;8.70;6.23;;;1.90;99.90;;;;;;5112676;28;20219;-69
2022/11/26 08:55:22;;;;;;;7.97;5.43;;;2.00;99.90;;;;;;5111794;28;20206;-71
2022/11/26 08:57:50;;;;;;;174.57;80.20;;;2.00;99.90;;;;;;5111626;28;20251;-71
2022/11/26 09:00:18;;;;;;;18.13;12.43;;;2.00;99.90;;;;;;5113226;28;20195;-69
2022/11/26 09:02:45;;;;;;;10.50;7.17;;;2.00;99.90;;;;;;5113116;28;20793;-72
2022/11/26 09:05:12;;;;;;;8.40;5.87;;;2.00;99.90;;;;;;5113361;28;20674;-70
2022/11/26 09:07:38;;;;;;;8.93;5.97;;;2.00;99.90;;;;;;5112321;28;20210;-72
2022/11/26 09:10:06;;;;;;;7.77;6.30;;;2.10;99.90;;;;;;5112853;28;20227;-71
2022/11/26 09:12:33;;;;;;;10.40;6.80;;;2.10;99.90;;;;;;5108215;28;20204;-68
2022/11/26 09:15:01;;;;;;;10.63;7.65;;;2.10;99.90;;;;;;5096635;28;20439;-69
2022/11/26 09:17:28;;;;;;;9.33;6.70;;;2.10;99.90;;;;;;5111575;28;20564;-68
2022/11/26 09:19:55;;;;;;;9.33;7.50;;;2.20;99.90;;;;;;5113275;28;20562;-69
2022/11/26 09:22:22;;;;;;;10.97;6.97;;;2.20;99.90;;;;;;5112665;28;20207;-70
2022/11/26 09:24:49;;;;;;;10.93;7.93;;;2.20;99.90;;;;;;5112597;28;20199;-68
2022/11/26 09:27:16;;;;;;;10.67;7.03;;;2.30;99.90;;;;;;5112315;28;20200;-69
2022/11/26 09:29:43;;;;;;;11.77;7.70;;;2.30;99.90;;;;;;5112076;28;20231;-69
2022/11/26 09:32:11;;;;;;;10.43;7.93;;;2.30;99.90;;;;;;5112441;28;20296;-69
2022/11/26 09:34:37;;;;;;;8.00;6.60;;;2.30;99.90;;;;;;5112005;28;20206;-68
2022/11/26 09:37:04;;;;;;;8.97;6.90;;;2.30;99.90;;;;;;5112805;28;20196;-71
2022/11/26 09:39:31;;;;;;;8.50;6.63;;;2.30;99.90;;;;;;5110221;28;20196;-69
2022/11/26 09:42:04;;;;;;;8.63;6.40;;;2.30;99.90;;;;;;5111508;28;20525;-73
2022/11/26 09:44:45;;;;;;;9.83;7.07;;;2.30;99.90;;;;;;5110625;28;20656;-70
2022/11/26 09:47:17;;;;;;;11.93;8.40;;;2.30;99.90;;;;;;5110927;28;20225;-69
2022/11/26 09:49:57;;;;;;;8.60;7.20;;;2.30;99.90;;;;;;5111440;28;20527;-72
2022/11/26 23:53:57;;;;;;;14.10;10.37;;;0.60;99.90;;;;;;5405518;23;20604;-69
2022/11/26 23:56:26;;;;;;;14.13;10.57;;;0.70;99.90;;;;;;5032877;28;20201;-69
2022/11/26 23:58:54;;;;;;;9.70;8.03;;;0.80;99.90;;;;;;5020982;28;20222;-68
